createdAt,value
2022-09-23T00:01:22.722Z,2.92
2022-09-23T00:06:18.892Z,3.30
2022-09-23T00:11:32.726Z,3.30
2022-09-23T00:16:29.575Z,3.03
2022-09-23T00:21:23.957Z,3.28
2022-09-23T00:26:19.594Z,2.63
2022-09-23T00:31:23.656Z,2.78
2022-09-23T00:36:21.752Z,2.35
2022-09-23T00:41:16.091Z,2.80
2022-09-23T00:46:11.170Z,2.53
2022-09-23T00:51:05.813Z,3.10
2022-09-23T00:56:04.534Z,2.90
2022-09-23T01:01:18.707Z,3.10
2022-09-23T01:06:12.662Z,2.72
2022-09-23T01:11:29.374Z,4.30
2022-09-23T01:16:34.357Z,3.90
2022-09-23T01:21:39.614Z,3.10
2022-09-23T01:26:50.900Z,4.05
2022-09-23T01:32:03.320Z,3.72
2022-09-23T01:37:26.453Z,3.58
2022-09-23T01:42:29.940Z,3.70
2022-09-23T01:47:28.339Z,4.20
2022-09-23T01:52:39.909Z,4.23
2022-09-23T01:57:54.227Z,4.85
2022-09-23T02:02:53.459Z,3.78
2022-09-23T02:08:03.960Z,4.95
2022-09-23T02:13:01.591Z,4.57
2022-09-23T02:18:02.196Z,5.75
2022-09-23T02:23:09.948Z,5.55
2022-09-23T02:28:26.484Z,6.18
2022-09-23T02:33:24.783Z,5.90
2022-09-23T02:38:36.083Z,5.50
2022-09-23T02:43:54.350Z,5.03
2022-09-23T02:49:06.892Z,4.07
2022-09-23T02:54:20.715Z,4.78
2022-09-23T02:59:14.772Z,6.38
2022-09-23T03:04:15.327Z,5.97
2022-09-23T03:09:20.469Z,5.60
2022-09-23T03:14:34.951Z,6.20
2022-09-23T03:19:58.256Z,6.35
2022-09-23T03:24:54.194Z,6.07
2022-09-23T03:29:49.043Z,8.23
2022-09-23T03:34:44.851Z,9.23
2022-09-23T03:40:02.936Z,8.40
2022-09-23T03:44:57.904Z,5.53
2022-09-23T03:49:52.830Z,6.50
2022-09-23T03:54:47.100Z,6.28
2022-09-23T03:59:41.604Z,5.93
2022-09-23T04:04:37.430Z,6.72
2022-09-23T04:09:31.542Z,5.65
2022-09-23T04:14:24.922Z,6.80
2022-09-23T04:19:18.450Z,6.55
2022-09-23T04:24:11.959Z,6.95
2022-09-23T04:29:06.974Z,7.07
2022-09-23T04:34:00.954Z,5.55
2022-09-23T04:38:54.006Z,6.00
2022-09-23T04:43:48.302Z,6.05
2022-09-23T04:48:43.011Z,6.55
2022-09-23T04:53:37.736Z,6.97
2022-09-23T04:58:31.763Z,6.28
2022-09-23T05:03:25.709Z,5.97
2022-09-23T05:08:25.560Z,6.22
2022-09-23T05:13:19.669Z,6.22
2022-09-23T05:18:12.861Z,5.60
2022-09-23T05:23:06.234Z,5.45
2022-09-23T05:27:59.927Z,6.03
2022-09-23T05:32:53.464Z,5.43
2022-09-23T05:37:47.795Z,5.72
2022-09-23T05:42:41.947Z,5.97
2022-09-23T05:47:35.382Z,7.25
2022-09-23T05:52:28.851Z,8.32
2022-09-23T05:57:26.713Z,7.30
2022-09-23T06:02:20.219Z,6.68
2022-09-23T06:07:14.293Z,8.43
2022-09-23T06:12:07.959Z,7.03
2022-09-23T06:17:05.783Z,7.15
2022-09-23T06:22:00.038Z,7.32
2022-09-23T06:26:53.364Z,8.65
2022-09-23T06:31:47.484Z,7.35
2022-09-23T06:36:45.762Z,7.20
2022-09-23T06:46:37.943Z,8.15
2022-09-23T06:51:31.997Z,8.18
2022-09-23T06:56:25.331Z,6.68
2022-09-23T07:01:20.287Z,6.50
2022-09-23T07:06:13.859Z,5.35
2022-09-23T07:11:07.576Z,6.35
2022-09-23T07:16:02.573Z,7.70
2022-09-23T07:20:59.667Z,8.32
2022-09-23T07:25:53.939Z,8.32
2022-09-23T07:30:57.955Z,8.45
2022-09-23T07:35:54.303Z,5.60
2022-09-23T07:40:48.245Z,5.22
2022-09-23T07:45:44.043Z,4.13
2022-09-23T07:50:40.276Z,4.40
2022-09-23T07:55:35.494Z,4.35
2022-09-23T08:00:28.681Z,3.85
2022-09-23T08:05:23.579Z,3.70
2022-09-23T08:10:21.557Z,4.03
2022-09-23T08:15:17.033Z,3.50
2022-09-23T08:20:30.620Z,3.42
2022-09-23T08:25:25.078Z,3.38
2022-09-23T08:30:19.368Z,2.90
2022-09-23T08:35:13.173Z,2.78
2022-09-23T08:40:09.813Z,3.50
2022-09-23T08:45:05.394Z,2.75
2022-09-23T08:50:42.677Z,2.55
2022-09-23T08:55:44.987Z,2.88
2022-09-23T09:00:43.427Z,2.90
2022-09-23T09:05:37.372Z,2.70
2022-09-23T09:10:38.522Z,3.90
2022-09-23T09:15:32.888Z,2.40
2022-09-23T09:20:29.160Z,3.35
2022-09-23T09:25:47.544Z,3.45
2022-09-23T09:31:01.393Z,3.00
2022-09-23T09:36:13.720Z,2.40
2022-09-23T09:41:52.883Z,1.92
2022-09-23T09:47:17.652Z,1.55
2022-09-23T09:52:44.032Z,1.40
2022-09-23T09:57:48.856Z,1.48
2022-09-23T10:03:03.576Z,1.33
2022-09-23T10:08:25.183Z,1.02
2022-09-23T10:13:21.181Z,1.30
2022-09-23T10:18:50.098Z,2.40
2022-09-23T10:24:05.392Z,0.90
2022-09-23T10:29:00.786Z,1.50
2022-09-23T10:33:58.131Z,1.48
2022-09-23T10:39:19.416Z,1.40
2022-09-23T10:45:18.636Z,2.85
2022-09-23T10:50:17.447Z,2.10
2022-09-23T10:55:27.316Z,1.55
2022-09-23T11:00:33.068Z,1.50
2022-09-23T11:05:34.230Z,1.70
2022-09-23T11:10:50.707Z,2.35
2022-09-23T11:16:15.193Z,2.28
2022-09-23T11:21:45.369Z,1.85
2022-09-23T11:26:53.610Z,2.17
2022-09-23T11:32:05.292Z,2.22
2022-09-23T11:37:26.286Z,2.08
2022-09-23T11:47:35.299Z,1.92
2022-09-23T11:52:42.580Z,2.00
2022-09-23T11:58:08.034Z,1.77
2022-09-23T12:03:14.152Z,1.65
2022-09-23T12:08:18.836Z,1.67
2022-09-23T12:13:18.905Z,1.50
2022-09-23T12:18:22.851Z,1.42
2022-09-23T12:23:43.184Z,1.15
2022-09-23T12:28:39.998Z,1.52
2022-09-23T12:33:35.028Z,1.33
2022-09-23T12:38:35.376Z,1.58
2022-09-23T12:43:33.956Z,1.48
2022-09-23T12:48:44.619Z,1.00
2022-09-23T12:53:37.205Z,1.60
2022-09-23T12:58:42.718Z,1.48
2022-09-23T13:03:54.666Z,1.30
2022-09-23T13:08:48.342Z,1.10
2022-09-23T13:13:47.094Z,1.02
2022-09-23T13:19:03.337Z,1.13
2022-09-23T13:24:44.181Z,1.50
2022-09-23T13:29:43.126Z,1.17
2022-09-23T13:34:41.798Z,1.17
2022-09-23T13:39:35.682Z,1.20
2022-09-23T13:44:30.588Z,1.00
2022-09-23T13:49:24.409Z,1.30
2022-09-23T13:54:39.448Z,1.30
2022-09-23T13:59:38.456Z,1.27
2022-09-23T14:04:31.897Z,1.00
2022-09-23T14:09:27.929Z,1.10
2022-09-23T14:14:22.902Z,1.40
2022-09-23T14:19:20.031Z,1.20
2022-09-23T14:24:34.809Z,1.20
2022-09-23T14:29:34.474Z,1.35
2022-09-23T14:34:48.829Z,1.00
2022-09-23T14:39:42.739Z,1.50
2022-09-23T14:44:36.077Z,1.60
2022-09-23T14:49:30.208Z,1.38
2022-09-23T14:54:40.824Z,1.23
2022-09-23T14:59:34.701Z,1.02
2022-09-23T15:04:31.277Z,1.10
2022-09-23T15:09:36.666Z,1.40
2022-09-23T15:14:42.438Z,1.20
2022-09-23T15:19:38.083Z,1.20
2022-09-23T15:24:43.353Z,1.50
2022-09-23T15:29:36.664Z,1.20
2022-09-23T15:34:31.711Z,1.30
2022-09-23T15:39:35.563Z,1.25
2022-09-23T15:44:30.370Z,1.05
2022-09-23T15:49:30.676Z,2.13
2022-09-23T15:54:25.082Z,1.00
2022-09-23T15:59:19.999Z,1.80
2022-09-23T16:04:16.776Z,1.10
2022-09-23T16:09:13.492Z,1.13
2022-09-23T16:14:15.254Z,1.40
2022-09-23T16:19:09.101Z,1.30
2022-09-23T16:24:03.287Z,1.45
2022-09-23T16:28:57.914Z,1.42
2022-09-23T16:33:52.123Z,1.30
2022-09-23T16:38:45.507Z,1.40
2022-09-23T16:43:42.681Z,1.13
2022-09-23T16:48:38.253Z,1.60
2022-09-23T16:53:31.929Z,1.30
2022-09-23T16:58:26.196Z,1.70
2022-09-23T17:03:38.597Z,2.28
2022-09-23T17:08:40.853Z,1.73
2022-09-23T17:13:39.273Z,1.70
2022-09-23T17:18:33.331Z,1.83
2022-09-23T17:23:28.997Z,1.15
2022-09-23T17:28:22.264Z,1.35
2022-09-23T17:33:15.959Z,1.42
2022-09-23T17:38:10.165Z,1.63
2022-09-23T17:43:04.376Z,1.63
2022-09-23T17:47:58.113Z,1.73
2022-09-23T17:52:52.038Z,1.70
2022-09-23T17:57:46.458Z,1.60
2022-09-23T18:02:40.596Z,3.10
2022-09-23T18:07:34.680Z,6.68
2022-09-23T18:12:28.645Z,4.65
2022-09-23T18:17:22.041Z,5.10
2022-09-23T18:22:15.891Z,5.13
2022-09-23T18:27:13.284Z,5.65
2022-09-23T18:32:12.119Z,3.50
2022-09-23T18:37:15.237Z,3.15
2022-09-23T18:42:10.200Z,2.50
2022-09-23T18:47:04.576Z,3.13
2022-09-23T18:51:59.372Z,2.13
2022-09-23T18:56:53.240Z,2.45
2022-09-23T19:01:49.117Z,2.35
2022-09-23T19:06:42.717Z,2.40
2022-09-23T19:11:37.997Z,2.83
2022-09-23T19:16:32.884Z,2.67
2022-09-23T19:21:27.025Z,2.55
2022-09-23T19:26:24.740Z,2.53
2022-09-23T19:31:22.745Z,2.83
2022-09-23T19:36:17.260Z,3.30
2022-09-23T19:41:11.993Z,3.17
2022-09-23T19:46:07.704Z,3.08
2022-09-23T19:51:03.574Z,2.95
2022-09-23T19:55:57.900Z,2.95
2022-09-23T20:00:52.158Z,2.88
2022-09-23T20:05:47.031Z,3.03
2022-09-23T20:10:40.951Z,3.58
2022-09-23T20:15:35.292Z,3.05
2022-09-23T20:20:29.753Z,2.60
2022-09-23T20:25:23.226Z,2.05
2022-09-23T20:30:18.364Z,3.63
2022-09-23T20:35:12.098Z,2.60
2022-09-23T20:40:08.916Z,2.85
2022-09-23T20:45:10.596Z,3.08
2022-09-23T20:50:06.420Z,3.25
2022-09-23T20:55:03.209Z,3.90
2022-09-23T20:59:59.195Z,2.60
2022-09-23T21:04:54.273Z,2.80
2022-09-23T21:09:49.948Z,3.05
2022-09-23T21:14:44.671Z,2.80
2022-09-23T21:19:40.728Z,2.78
2022-09-23T21:25:08.476Z,2.33
2022-09-23T21:29:49.174Z,2.72
2022-09-23T21:34:43.735Z,2.50
2022-09-23T21:39:37.934Z,3.13
2022-09-23T21:44:33.369Z,3.00
2022-09-23T21:49:28.467Z,2.67
2022-09-23T21:54:27.066Z,2.45
2022-09-23T21:59:22.112Z,2.83
2022-09-23T22:04:18.654Z,2.40
2022-09-23T22:09:18.909Z,2.85
2022-09-23T22:14:16.888Z,2.95
2022-09-23T22:19:14.453Z,2.90
2022-09-23T22:24:10.148Z,2.75
2022-09-23T22:29:21.908Z,2.83
2022-09-23T22:34:37.687Z,3.40
2022-09-23T22:39:31.066Z,2.83
2022-09-23T22:44:26.172Z,2.90
2022-09-23T22:49:20.567Z,3.13
2022-09-23T22:54:14.224Z,3.70
2022-09-23T22:59:08.762Z,3.13
2022-09-23T23:04:03.705Z,3.92
2022-09-23T23:09:00.792Z,4.53
2022-09-23T23:13:54.909Z,3.70
2022-09-23T23:18:48.272Z,3.25
2022-09-23T23:23:44.794Z,3.30
2022-09-23T23:28:39.874Z,3.83
2022-09-23T23:33:34.233Z,3.80
2022-09-23T23:38:28.479Z,3.75
2022-09-23T23:43:21.693Z,3.58
2022-09-23T23:48:15.987Z,3.53
2022-09-23T23:53:12.676Z,5.00
2022-09-23T23:58:06.781Z,2.88
